Time,TemperatureF,DewpointF,PressureIn,WindDirection,WindDirectionDegrees,WindSpeedMPH,WindSpeedGustMPH,Humidity,HourlyPrecipIn,Conditions,Clouds,dailyrainin,SolarRadiationWatts/m^2,SoftwareType,DateUTC
2013-05-29 00:02:00,65.0,63.0,-100.00,ESE,123,0.0,6.0,92,0.00,,,0.00,0.000000,,2013-05-29 10:02:00,
2013-05-29 00:12:00,65.0,63.0,-100.00,ESE,123,0.0,6.0,92,0.00,,,0.00,0.000000,,2013-05-29 10:12:00,
2013-05-29 00:22:00,65.0,63.0,-100.00,ESE,123,0.0,6.0,92,0.00,,,0.00,0.000000,,2013-05-29 10:22:00,
2013-05-29 00:32:00,65.0,63.0,-100.00,ESE,123,0.0,6.0,92,0.00,,,0.00,0.000000,,2013-05-29 10:32:00,
2013-05-29 00:53:00,65.0,63.0,-100.00,SE,136,4.0,5.0,94,0.00,,,0.00,0.000000,,2013-05-29 10:53:00,
2013-05-29 01:02:00,65.0,63.0,-100.00,SE,136,4.0,5.0,94,0.00,,,0.00,0.000000,,2013-05-29 11:02:00,
2013-05-29 01:11:00,65.0,63.0,-100.00,SE,136,4.0,5.0,94,0.00,,,0.00,0.000000,,2013-05-29 11:11:00,
2013-05-29 01:21:00,65.0,63.0,-100.00,SE,136,4.0,5.0,94,0.00,,,0.00,0.000000,,2013-05-29 11:21:00,
2013-05-29 01:32:00,65.0,63.0,-100.00,SE,136,4.0,5.0,94,0.00,,,0.00,0.000000,,2013-05-29 11:32:00,
2013-05-29 02:01:00,64.0,61.0,-100.00,SSE,147,4.0,5.0,90,0.00,,,0.00,0.000000,,2013-05-29 12:01:00,
2013-05-29 02:11:00,64.0,61.0,-100.00,SSE,147,4.0,5.0,90,0.00,,,0.00,0.000000,,2013-05-29 12:11:00,
2013-05-29 02:21:00,64.0,61.0,-100.00,SSE,147,4.0,5.0,90,0.00,,,0.00,0.000000,,2013-05-29 12:21:00,
2013-05-29 02:31:00,64.0,61.0,-100.00,SSE,147,4.0,5.0,90,0.00,,,0.00,0.000000,,2013-05-29 12:31:00,
2013-05-29 02:52:00,63.0,60.0,-100.00,SE,145,6.0,8.0,90,0.00,,,0.00,0.000000,,2013-05-29 12:52:00,
2013-05-29 03:01:00,63.0,60.0,-100.00,SE,145,6.0,8.0,90,0.00,,,0.00,0.000000,,2013-05-29 13:01:00,
2013-05-29 03:11:00,63.0,60.0,-100.00,SE,145,6.0,8.0,90,0.00,,,0.00,0.000000,,2013-05-29 13:11:00,
2013-05-29 03:21:00,63.0,60.0,-100.00,SE,145,6.0,8.0,90,0.00,,,0.00,0.000000,,2013-05-29 13:21:00,
2013-05-29 03:31:00,63.0,60.0,-100.00,SE,145,6.0,8.0,90,0.00,,,0.00,0.000000,,2013-05-29 13:31:00,
2013-05-29 03:53:00,62.0,59.0,-100.00,SE,143,5.0,8.0,91,0.00,,,0.00,0.000000,,2013-05-29 13:53:00,
2013-05-29 04:02:00,62.0,59.0,-100.00,SE,143,5.0,8.0,91,0.00,,,0.00,0.000000,,2013-05-29 14:02:00,
2013-05-29 04:11:00,62.0,59.0,-100.00,SE,143,5.0,8.0,91,0.00,,,0.00,0.000000,,2013-05-29 14:11:00,
2013-05-29 04:21:00,62.0,59.0,-100.00,SE,143,5.0,8.0,91,0.00,,,0.00,0.000000,,2013-05-29 14:21:00,
2013-05-29 04:32:00,62.0,59.0,-100.00,SE,143,5.0,8.0,91,0.00,,,0.00,0.000000,,2013-05-29 14:32:00,
2013-05-29 04:52:00,61.0,57.0,-100.00,SE,143,5.0,8.0,87,0.00,,,0.00,0.000000,,2013-05-29 14:52:00,
2013-05-29 05:01:00,61.0,57.0,-100.00,SE,143,5.0,8.0,87,0.00,,,0.00,0.000000,,2013-05-29 15:01:00,
2013-05-29 05:11:00,61.0,57.0,-100.00,SE,143,5.0,8.0,87,0.00,,,0.00,0.000000,,2013-05-29 15:11:00,
2013-05-29 05:21:00,61.0,57.0,-100.00,SE,143,5.0,8.0,87,0.00,,,0.00,0.000000,,2013-05-29 15:21:00,
2013-05-29 05:32:00,61.0,57.0,-100.00,SE,143,5.0,8.0,87,0.00,,,0.00,0.000000,,2013-05-29 15:32:00,
2013-05-29 05:53:00,60.0,55.0,-100.00,SSE,147,7.0,9.0,85,0.00,,,0.00,0.000000,,2013-05-29 15:53:00,
2013-05-29 06:03:00,60.0,55.0,-100.00,SSE,147,7.0,9.0,85,0.00,,,0.00,0.000000,,2013-05-29 16:03:00,
2013-05-29 06:12:00,60.0,55.0,-100.00,SSE,147,7.0,9.0,85,0.00,,,0.00,0.000000,,2013-05-29 16:12:00,
2013-05-29 06:22:00,60.0,55.0,-100.00,SSE,147,7.0,9.0,85,0.00,,,0.00,0.000000,,2013-05-29 16:22:00,
2013-05-29 06:32:00,60.0,55.0,-100.00,SSE,147,7.0,9.0,85,0.00,,,0.00,0.000000,,2013-05-29 16:32:00,
2013-05-29 06:52:00,64.0,58.0,-100.00,SE,142,6.0,11.0,82,0.00,,,0.00,46.000000,,2013-05-29 16:52:00,
2013-05-29 07:02:00,64.0,58.0,-100.00,SE,142,6.0,11.0,82,0.00,,,0.00,46.000000,,2013-05-29 17:02:00,
2013-05-29 07:12:00,64.0,58.0,-100.00,SE,142,6.0,11.0,82,0.00,,,0.00,46.000000,,2013-05-29 17:12:00,
2013-05-29 07:22:00,64.0,58.0,-100.00,SE,142,6.0,11.0,82,0.00,,,0.00,46.000000,,2013-05-29 17:22:00,
2013-05-29 07:32:00,64.0,58.0,-100.00,SE,142,6.0,11.0,82,0.00,,,0.00,46.000000,,2013-05-29 17:32:00,
2013-05-29 08:01:00,73.0,61.0,-100.00,SE,134,2.0,9.0,65,0.00,,,0.00,272.000000,,2013-05-29 18:01:00,
2013-05-29 08:13:00,73.0,61.0,-100.00,SE,134,2.0,9.0,65,0.00,,,0.00,272.000000,,2013-05-29 18:13:00,
2013-05-29 08:22:00,73.0,61.0,-100.00,SE,134,2.0,9.0,65,0.00,,,0.00,272.000000,,2013-05-29 18:22:00,
2013-05-29 08:32:00,73.0,61.0,-100.00,SE,134,2.0,9.0,65,0.00,,,0.00,272.000000,,2013-05-29 18:32:00,
2013-05-29 08:52:00,73.0,63.0,-100.00,NNW,332,4.0,9.0,70,0.00,,,0.00,576.000000,,2013-05-29 18:52:00,
2013-05-29 09:01:00,73.0,63.0,-100.00,NNW,332,4.0,9.0,70,0.00,,,0.00,576.000000,,2013-05-29 19:01:00,
2013-05-29 09:11:00,73.0,63.0,-100.00,NNW,332,4.0,9.0,70,0.00,,,0.00,576.000000,,2013-05-29 19:11:00,
2013-05-29 09:21:00,73.0,63.0,-100.00,NNW,332,4.0,9.0,70,0.00,,,0.00,576.000000,,2013-05-29 19:21:00,
2013-05-29 09:32:00,73.0,63.0,-100.00,NNW,332,4.0,9.0,70,0.00,,,0.00,576.000000,,2013-05-29 19:32:00,
2013-05-29 10:02:00,72.0,63.0,-100.00,North,0,3.0,9.0,74,0.00,,,0.00,551.000000,,2013-05-29 20:02:00,
2013-05-29 10:11:00,72.0,63.0,-100.00,North,0,3.0,9.0,74,0.00,,,0.00,551.000000,,2013-05-29 20:11:00,
2013-05-29 10:22:00,72.0,63.0,-100.00,North,0,3.0,9.0,74,0.00,,,0.00,551.000000,,2013-05-29 20:22:00,
2013-05-29 10:32:00,72.0,63.0,-100.00,North,0,3.0,9.0,74,0.00,,,0.00,551.000000,,2013-05-29 20:32:00,
2013-05-29 11:02:00,74.0,61.0,-100.00,NW,314,6.0,10.0,65,0.00,,,0.00,893.000000,,2013-05-29 21:02:00,
2013-05-29 11:12:00,74.0,61.0,-100.00,NW,314,6.0,10.0,65,0.00,,,0.00,893.000000,,2013-05-29 21:12:00,
2013-05-29 11:22:00,74.0,61.0,-100.00,NW,314,6.0,10.0,65,0.00,,,0.00,893.000000,,2013-05-29 21:22:00,
2013-05-29 11:33:00,74.0,61.0,-100.00,NW,314,6.0,10.0,65,0.00,,,0.00,893.000000,,2013-05-29 21:33:00,
2013-05-29 11:53:00,74.0,66.0,-100.00,NW,308,8.0,12.0,76,0.00,,,0.00,780.000000,,2013-05-29 21:53:00,
2013-05-29 12:03:00,74.0,66.0,-100.00,NW,308,8.0,12.0,76,0.00,,,0.00,780.000000,,2013-05-29 22:03:00,
2013-05-29 12:12:00,74.0,66.0,-100.00,NW,308,8.0,12.0,76,0.00,,,0.00,780.000000,,2013-05-29 22:12:00,
2013-05-29 12:23:00,74.0,66.0,-100.00,NW,308,8.0,12.0,76,0.00,,,0.00,780.000000,,2013-05-29 22:23:00,
2013-05-29 12:33:00,74.0,66.0,-100.00,NW,308,8.0,12.0,76,0.00,,,0.00,780.000000,,2013-05-29 22:33:00,
2013-05-29 12:53:00,73.0,66.0,-100.00,West,280,7.0,14.0,80,0.00,,,0.00,518.000000,,2013-05-29 22:53:00,
2013-05-29 13:02:00,73.0,66.0,-100.00,West,280,7.0,14.0,80,0.00,,,0.00,518.000000,,2013-05-29 23:02:00,
2013-05-29 13:12:00,73.0,66.0,-100.00,West,280,7.0,14.0,80,0.00,,,0.00,518.000000,,2013-05-29 23:12:00,
2013-05-29 13:21:00,73.0,66.0,-100.00,West,280,7.0,14.0,80,0.00,,,0.00,518.000000,,2013-05-29 23:21:00,
2013-05-29 13:33:00,73.0,66.0,-100.00,West,280,7.0,14.0,80,0.00,,,0.00,518.000000,,2013-05-29 23:33:00,
2013-05-29 14:01:00,71.0,65.0,-100.00,WNW,288,8.0,15.0,80,0.00,,,0.00,433.000000,,2013-05-30 00:01:00,
2013-05-29 14:11:00,71.0,65.0,-100.00,WNW,288,8.0,15.0,80,0.00,,,0.00,433.000000,,2013-05-30 00:11:00,
2013-05-29 14:21:00,71.0,65.0,-100.00,WNW,288,8.0,15.0,80,0.00,,,0.00,433.000000,,2013-05-30 00:21:00,
2013-05-29 14:31:00,71.0,65.0,-100.00,WNW,288,8.0,15.0,80,0.00,,,0.00,433.000000,,2013-05-30 00:31:00,
2013-05-29 14:52:00,70.0,65.0,-100.00,WNW,295,8.0,14.0,84,0.00,,,0.00,316.000000,,2013-05-30 00:52:00,
2013-05-29 15:01:00,70.0,65.0,-100.00,WNW,295,8.0,14.0,84,0.00,,,0.00,316.000000,,2013-05-30 01:01:00,
2013-05-29 15:11:00,70.0,65.0,-100.00,WNW,295,8.0,14.0,84,0.00,,,0.00,316.000000,,2013-05-30 01:11:00,
2013-05-29 15:21:00,70.0,65.0,-100.00,WNW,295,8.0,14.0,84,0.00,,,0.00,316.000000,,2013-05-30 01:21:00,
2013-05-29 15:31:00,70.0,65.0,-100.00,WNW,295,8.0,14.0,84,0.00,,,0.00,316.000000,,2013-05-30 01:31:00,
2013-05-29 15:52:00,70.0,68.0,-100.00,WNW,290,7.0,13.0,92,0.00,,,0.00,139.000000,,2013-05-30 01:52:00,
2013-05-29 16:01:00,70.0,68.0,-100.00,WNW,290,7.0,13.0,92,0.00,,,0.00,139.000000,,2013-05-30 02:01:00,
2013-05-29 16:11:00,70.0,68.0,-100.00,WNW,290,7.0,13.0,92,0.00,,,0.00,139.000000,,2013-05-30 02:11:00,
2013-05-29 16:21:00,70.0,68.0,-100.00,WNW,290,7.0,13.0,92,0.00,,,0.00,139.000000,,2013-05-30 02:21:00,
2013-05-29 16:32:00,70.0,68.0,-100.00,WNW,290,7.0,13.0,92,0.00,,,0.00,139.000000,,2013-05-30 02:32:00,
2013-05-29 17:01:00,68.0,67.0,-100.00,North,9,5.0,11.0,95,0.04,,,0.04,63.000000,,2013-05-30 03:01:00,
2013-05-29 17:11:00,68.0,67.0,-100.00,North,9,5.0,11.0,95,0.04,,,0.04,63.000000,,2013-05-30 03:11:00,
2013-05-29 17:21:00,68.0,67.0,-100.00,North,9,5.0,11.0,95,0.04,,,0.04,63.000000,,2013-05-30 03:21:00,
2013-05-29 17:32:00,68.0,67.0,-100.00,North,9,5.0,11.0,95,0.04,,,0.04,63.000000,,2013-05-30 03:32:00,
2013-05-29 17:53:00,67.0,66.0,-100.00,NW,314,0.0,12.0,97,0.31,,,-99.99,46.000000,,2013-05-30 03:53:00,
2013-05-29 18:02:00,67.0,66.0,-100.00,NW,314,0.0,12.0,97,0.31,,,-99.99,46.000000,,2013-05-30 04:02:00,
2013-05-29 18:12:00,67.0,66.0,-100.00,NW,314,0.0,12.0,97,0.31,,,-99.99,46.000000,,2013-05-30 04:12:00,
2013-05-29 18:23:00,67.0,66.0,-100.00,NW,314,0.0,12.0,97,0.31,,,-99.99,46.000000,,2013-05-30 04:23:00,
2013-05-29 18:32:00,67.0,66.0,-100.00,NW,314,0.0,12.0,97,0.31,,,-99.99,46.000000,,2013-05-30 04:32:00,
2013-05-29 19:02:00,66.0,64.0,-100.00,South,187,5.0,7.0,94,0.02,,,0.37,61.000000,,2013-05-30 05:02:00,
2013-05-29 19:12:00,66.0,64.0,-100.00,South,187,5.0,7.0,94,0.02,,,0.37,61.000000,,2013-05-30 05:12:00,
2013-05-29 19:22:00,66.0,64.0,-100.00,South,187,5.0,7.0,94,0.02,,,0.37,61.000000,,2013-05-30 05:22:00,
2013-05-29 19:32:00,66.0,64.0,-100.00,South,187,5.0,7.0,94,0.02,,,0.37,61.000000,,2013-05-30 05:32:00,
2013-05-29 19:52:00,64.0,63.0,-100.00,SSW,198,1.0,8.0,95,0.00,,,0.37,5.000000,,2013-05-30 05:52:00,
2013-05-29 20:01:00,64.0,63.0,-100.00,SSW,198,1.0,8.0,95,0.00,,,0.37,5.000000,,2013-05-30 06:01:00,
2013-05-29 20:12:00,64.0,63.0,-100.00,SSW,198,1.0,8.0,95,0.00,,,0.37,5.000000,,2013-05-30 06:12:00,
2013-05-29 20:21:00,64.0,63.0,-100.00,SSW,198,1.0,8.0,95,0.00,,,0.37,5.000000,,2013-05-30 06:21:00,
2013-05-29 20:32:00,64.0,63.0,-100.00,SSW,198,1.0,8.0,95,0.00,,,0.37,5.000000,,2013-05-30 06:32:00,
2013-05-29 20:52:00,64.0,63.0,-100.00,SSE,161,3.0,4.0,96,0.00,,,0.37,0.000000,,2013-05-30 06:52:00,
2013-05-29 21:01:00,64.0,63.0,-100.00,SSE,161,3.0,4.0,96,0.00,,,0.37,0.000000,,2013-05-30 07:01:00,
2013-05-29 21:12:00,64.0,63.0,-100.00,SSE,161,3.0,4.0,96,0.00,,,0.37,0.000000,,2013-05-30 07:12:00,
2013-05-29 21:21:00,64.0,63.0,-100.00,SSE,161,3.0,4.0,96,0.00,,,0.37,0.000000,,2013-05-30 07:21:00,
2013-05-29 21:31:00,64.0,63.0,-100.00,SSE,161,3.0,4.0,96,0.00,,,0.37,0.000000,,2013-05-30 07:31:00,
2013-05-29 22:02:00,65.0,64.0,-100.00,SSE,156,5.0,8.0,97,0.00,,,0.37,0.000000,,2013-05-30 08:02:00,
2013-05-29 22:11:00,65.0,64.0,-100.00,SSE,156,5.0,8.0,97,0.00,,,0.37,0.000000,,2013-05-30 08:11:00,
2013-05-29 22:21:00,65.0,64.0,-100.00,SSE,156,5.0,8.0,97,0.00,,,0.37,0.000000,,2013-05-30 08:21:00,
2013-05-29 22:31:00,65.0,64.0,-100.00,SSE,156,5.0,8.0,97,0.00,,,0.37,0.000000,,2013-05-30 08:31:00,
2013-05-29 22:53:00,64.0,62.0,-100.00,SSE,167,6.0,9.0,93,0.00,,,0.37,0.000000,,2013-05-30 08:53:00,
2013-05-29 23:01:00,64.0,62.0,-100.00,SSE,167,6.0,9.0,93,0.00,,,0.37,0.000000,,2013-05-30 09:01:00,
2013-05-29 23:11:00,64.0,62.0,-100.00,SSE,167,6.0,9.0,93,0.00,,,0.37,0.000000,,2013-05-30 09:11:00,
2013-05-29 23:21:00,64.0,62.0,-100.00,SSE,167,6.0,9.0,93,0.00,,,0.37,0.000000,,2013-05-30 09:21:00,
2013-05-29 23:32:00,64.0,62.0,-100.00,SSE,167,6.0,9.0,93,0.00,,,0.37,0.000000,,2013-05-30 09:32:00,